createdAt,value
2017-09-04T11:53:50.800Z,32.16
2017-09-04T11:56:24.230Z,32.22
2017-09-04T11:58:51.831Z,32.18
2017-09-04T12:01:19.421Z,32.04
2017-09-04T12:03:46.990Z,32.05
2017-09-04T12:06:14.571Z,32.02
2017-09-04T12:08:42.135Z,31.89
2017-09-04T12:11:09.677Z,31.93
2017-09-04T12:13:37.237Z,31.87
2017-09-04T12:16:04.755Z,31.81
2017-09-04T12:18:32.345Z,31.66
2017-09-04T12:20:59.961Z,31.58
2017-09-04T12:23:27.538Z,31.54
2017-09-04T12:25:55.127Z,31.39
2017-09-04T12:28:22.765Z,31.48
2017-09-04T12:30:50.316Z,31.61
2017-09-04T12:33:17.913Z,31.51
2017-09-04T12:35:45.550Z,31.57
2017-09-04T12:38:13.138Z,31.66
2017-09-04T12:40:40.808Z,31.72
2017-09-04T12:43:08.466Z,31.85
2017-09-04T12:45:35.996Z,31.96
2017-09-04T12:48:03.565Z,32.14
2017-09-04T12:50:31.140Z,32.15
2017-09-04T12:52:58.738Z,32.30
2017-09-04T12:55:26.302Z,32.35
2017-09-04T12:57:53.917Z,32.35
2017-09-04T13:00:21.483Z,32.54
2017-09-04T13:02:49.026Z,32.65
2017-09-04T13:05:16.596Z,32.76
2017-09-04T13:07:44.197Z,32.85
2017-09-04T13:10:29.525Z,33.04
2017-09-04T13:12:58.564Z,32.95
2017-09-04T13:15:31.528Z,32.97
2017-09-04T13:18:19.677Z,32.89
2017-09-04T13:20:53.053Z,32.86
2017-09-04T13:23:21.394Z,32.99
2017-09-04T13:26:00.295Z,33.08
2017-09-04T13:28:33.492Z,33.10
2017-09-04T13:31:06.547Z,32.87
2017-09-04T13:33:39.885Z,32.92
2017-09-04T13:36:12.872Z,32.95
2017-09-04T13:38:46.014Z,33.10
2017-09-04T13:41:32.284Z,33.12
2017-09-04T13:44:16.534Z,33.04
2017-09-04T13:47:01.940Z,33.20
2017-09-04T13:49:44.418Z,33.42
2017-09-04T13:52:17.529Z,33.47
2017-09-04T13:54:50.727Z,33.42
2017-09-04T13:57:24.097Z,33.47
2017-09-04T14:00:10.257Z,33.54
2017-09-04T14:02:56.600Z,33.78
2017-09-04T14:05:39.053Z,33.89
2017-09-04T14:08:24.455Z,33.91
2017-09-04T14:10:57.704Z,34.12
2017-09-04T14:13:41.013Z,34.07
2017-09-04T14:16:26.435Z,34.17
2017-09-04T14:18:54.898Z,34.24
2017-09-04T14:21:22.505Z,34.30
2017-09-04T14:23:50.105Z,34.31
2017-09-04T14:26:17.665Z,34.37
2017-09-04T14:28:45.194Z,34.39
2017-09-04T14:31:12.778Z,34.44
2017-09-04T14:33:40.364Z,34.52
2017-09-04T14:36:07.936Z,34.67
2017-09-04T14:38:35.758Z,34.64
2017-09-04T14:41:05.008Z,34.51
2017-09-04T14:43:49.275Z,34.50
2017-09-04T14:46:34.560Z,34.49
2017-09-04T14:49:02.181Z,34.57
2017-09-04T14:51:29.881Z,43.84
2017-09-04T14:53:57.606Z,44.54
2017-09-04T14:56:25.208Z,43.84
2017-09-04T14:58:52.806Z,42.65
2017-09-04T15:01:20.527Z,42.25
2017-09-04T15:03:48.075Z,37.32
2017-09-04T15:06:15.644Z,36.14
2017-09-04T15:08:43.261Z,35.49
2017-09-04T15:11:10.868Z,35.76
2017-09-04T15:13:38.435Z,35.03
2017-09-04T15:16:06.076Z,34.37
2017-09-04T15:18:33.648Z,34.88
2017-09-04T15:21:01.253Z,36.37
2017-09-04T15:23:28.920Z,34.68
2017-09-04T15:25:56.541Z,35.52
2017-09-04T15:28:25.590Z,35.58
2017-09-04T15:30:53.258Z,34.44
2017-09-04T15:33:20.939Z,34.83
2017-09-04T15:35:48.621Z,34.02
2017-09-04T15:38:16.250Z,34.10
2017-09-04T15:40:43.865Z,34.21
2017-09-04T15:43:11.472Z,34.50
2017-09-04T15:45:39.119Z,34.45
2017-09-04T15:48:06.687Z,34.51
2017-09-04T15:50:34.452Z,34.65
2017-09-04T15:53:02.122Z,34.83
2017-09-04T15:55:29.725Z,34.94
2017-09-04T15:57:57.342Z,35.15
2017-09-04T16:00:24.980Z,35.16
2017-09-04T16:02:52.528Z,35.32
2017-09-04T16:05:20.434Z,35.33
2017-09-04T16:07:51.445Z,35.43
2017-09-04T16:10:19.031Z,35.56
2017-09-04T16:12:49.976Z,35.68
2017-09-04T16:15:23.158Z,35.86
2017-09-04T16:17:54.230Z,36.03
2017-09-04T16:20:32.544Z,36.11
2017-09-04T16:23:00.089Z,36.37
2017-09-04T16:25:29.271Z,36.47
2017-09-04T16:28:00.277Z,36.58
2017-09-04T16:30:46.697Z,36.68
2017-09-04T16:33:19.797Z,36.84
2017-09-04T16:35:49.920Z,36.93
2017-09-04T16:38:17.525Z,36.99
2017-09-04T16:40:45.129Z,37.08
2017-09-04T16:43:18.246Z,37.18
2017-09-04T16:46:00.753Z,37.33
2017-09-04T16:48:33.828Z,37.46
2017-09-04T16:51:07.943Z,37.60
2017-09-04T16:53:36.194Z,37.88
2017-09-04T16:56:10.411Z,38.63
2017-09-04T16:58:38.017Z,39.12
2017-09-04T17:01:05.768Z,39.40
2017-09-04T17:03:33.514Z,39.57
2017-09-04T17:06:01.110Z,39.78
2017-09-04T17:08:44.506Z,39.92
2017-09-04T17:11:30.808Z,40.10
2017-09-04T17:13:58.400Z,40.19
2017-09-04T17:16:25.924Z,40.40
2017-09-04T17:18:53.940Z,40.53
2017-09-04T17:21:34.215Z,40.67
2017-09-04T17:24:01.802Z,40.86
2017-09-04T17:26:29.409Z,40.87
2017-09-04T17:28:57.042Z,40.96
2017-09-04T17:31:24.600Z,41.20
2017-09-04T17:33:52.201Z,41.29
2017-09-04T17:36:19.810Z,41.46
2017-09-04T17:38:47.393Z,41.48
2017-09-04T17:41:14.969Z,41.28
2017-09-04T17:43:42.590Z,41.43
2017-09-04T17:46:10.137Z,41.45
2017-09-04T17:48:37.696Z,41.50
2017-09-04T17:51:05.378Z,41.58
2017-09-04T17:53:32.934Z,41.70
2017-09-04T17:56:00.527Z,41.73
2017-09-04T17:58:28.144Z,41.67
2017-09-04T18:00:55.720Z,41.77
2017-09-04T18:03:23.252Z,41.80
2017-09-04T18:05:50.879Z,41.86
2017-09-04T18:08:18.443Z,41.93
2017-09-04T18:10:46.049Z,41.94
2017-09-04T18:13:13.669Z,42.03
2017-09-04T18:15:41.267Z,42.16
2017-09-04T18:18:08.807Z,42.02
2017-09-04T18:20:36.392Z,42.03
2017-09-04T18:23:03.965Z,41.90
2017-09-04T18:25:31.532Z,42.07
2017-09-04T18:27:59.121Z,42.17
2017-09-04T18:30:26.658Z,42.07
2017-09-04T18:32:54.258Z,42.21
2017-09-04T18:35:21.895Z,42.17
2017-09-04T18:37:49.473Z,42.30
2017-09-04T18:40:17.071Z,42.07
2017-09-04T18:42:44.659Z,42.07
2017-09-04T18:45:12.273Z,42.18
2017-09-04T18:47:39.860Z,42.24
2017-09-04T18:50:07.464Z,42.47
2017-09-04T18:52:35.067Z,42.53
2017-09-04T18:55:02.643Z,42.60
2017-09-04T18:57:31.044Z,42.73
2017-09-04T18:59:58.670Z,42.86
2017-09-04T19:05:03.861Z,43.36
2017-09-04T19:12:39.608Z,43.72
2017-09-04T19:15:07.264Z,43.66
2017-09-04T19:17:34.928Z,43.66
2017-09-04T19:20:02.453Z,43.32
2017-09-04T19:22:30.034Z,43.66
2017-09-04T19:24:57.599Z,43.80
2017-09-04T19:27:25.174Z,43.66
2017-09-04T19:29:52.827Z,43.88
2017-09-04T19:32:20.349Z,43.55
2017-09-04T19:34:47.939Z,43.46
2017-09-04T19:37:15.536Z,43.40
2017-09-04T19:39:43.097Z,43.50
2017-09-04T19:42:10.667Z,43.62
2017-09-04T19:44:38.464Z,43.79
2017-09-04T19:47:06.044Z,43.68
2017-09-04T19:49:33.628Z,44.00
2017-09-04T19:52:01.242Z,44.00
2017-09-04T19:54:28.807Z,44.03
2017-09-04T19:56:56.339Z,44.18
2017-09-04T19:59:23.954Z,44.17
2017-09-04T20:01:51.576Z,44.22
2017-09-04T20:04:19.162Z,44.17
2017-09-04T20:06:47.572Z,44.26
2017-09-04T20:09:15.164Z,44.28
2017-09-04T20:11:43.288Z,44.43
2017-09-04T20:14:11.453Z,44.59
2017-09-04T20:16:39.191Z,44.65
2017-09-04T20:19:06.719Z,44.70
2017-09-04T20:21:34.323Z,44.82
2017-09-04T20:24:01.924Z,45.11
2017-09-04T20:26:29.525Z,45.24
2017-09-04T20:28:57.157Z,45.28
2017-09-04T20:31:24.730Z,45.46
2017-09-04T20:33:52.252Z,45.57
2017-09-04T20:36:19.807Z,45.57
2017-09-04T20:38:47.336Z,45.60
2017-09-04T20:41:14.898Z,45.78
2017-09-04T20:43:42.521Z,45.60
2017-09-04T20:46:11.004Z,45.94
